sensor_id;sensor_type;location;lat;lon;timestamp;P1;durP1;ratioP1;P2;durP2;ratioP2
41719;SDS011;27405;53.316;-6.294;2024-01-11T00:01:50;12.68;;;1.92;;
41719;SDS011;27405;53.316;-6.294;2024-01-11T00:04:17;4.95;;;1.80;;
41719;SDS011;27405;53.316;-6.294;2024-01-11T00:06:43;4.43;;;1.30;;
41719;SDS011;27405;53.316;-6.294;2024-01-11T00:09:09;7.88;;;1.70;;
41719;SDS011;27405;53.316;-6.294;2024-01-11T00:11:35;5.10;;;1.40;;
41719;SDS011;27405;53.316;-6.294;2024-01-11T00:14:02;4.35;;;1.50;;
41719;SDS011;27405;53.316;-6.294;2024-01-11T00:16:27;10.43;;;1.45;;
41719;SDS011;27405;53.316;-6.294;2024-01-11T00:18:56;4.45;;;1.60;;
41719;SDS011;27405;53.316;-6.294;2024-01-11T00:21:25;6.35;;;1.42;;
41719;SDS011;27405;53.316;-6.294;2024-01-11T00:23:51;7.18;;;1.30;;
41719;SDS011;27405;53.316;-6.294;2024-01-11T00:26:16;4.53;;;1.15;;
41719;SDS011;27405;53.316;-6.294;2024-01-11T00:28:44;5.57;;;1.43;;
41719;SDS011;27405;53.316;-6.294;2024-01-11T00:31:10;8.23;;;2.00;;
41719;SDS011;27405;53.316;-6.294;2024-01-11T00:33:36;5.93;;;1.42;;
41719;SDS011;27405;53.316;-6.294;2024-01-11T00:36:02;6.57;;;1.92;;
41719;SDS011;27405;53.316;-6.294;2024-01-11T00:38:28;10.00;;;1.92;;
41719;SDS011;27405;53.316;-6.294;2024-01-11T00:40:54;7.45;;;1.75;;
41719;SDS011;27405;53.316;-6.294;2024-01-11T00:43:19;7.00;;;1.60;;
41719;SDS011;27405;53.316;-6.294;2024-01-11T00:45:45;7.40;;;1.40;;
41719;SDS011;27405;53.316;-6.294;2024-01-11T00:48:11;10.88;;;1.40;;
41719;SDS011;27405;53.316;-6.294;2024-01-11T00:50:37;5.03;;;1.17;;
41719;SDS011;27405;53.316;-6.294;2024-01-11T00:53:03;7.43;;;1.33;;
41719;SDS011;27405;53.316;-6.294;2024-01-11T00:55:29;6.55;;;1.40;;
41719;SDS011;27405;53.316;-6.294;2024-01-11T00:57:54;6.82;;;1.17;;
41719;SDS011;27405;53.316;-6.294;2024-01-11T01:00:20;6.00;;;1.25;;
41719;SDS011;27405;53.316;-6.294;2024-01-11T01:02:46;3.75;;;1.23;;
41719;SDS011;27405;53.316;-6.294;2024-01-11T01:05:11;6.30;;;1.00;;
41719;SDS011;27405;53.316;-6.294;2024-01-11T01:07:37;8.68;;;1.33;;
41719;SDS011;27405;53.316;-6.294;2024-01-11T01:10:03;4.97;;;1.42;;
41719;SDS011;27405;53.316;-6.294;2024-01-11T01:12:29;7.32;;;1.05;;
41719;SDS011;27405;53.316;-6.294;2024-01-11T01:14:54;6.45;;;1.25;;
41719;SDS011;27405;53.316;-6.294;2024-01-11T01:17:21;5.05;;;1.20;;
41719;SDS011;27405;53.316;-6.294;2024-01-11T01:19:47;6.57;;;1.13;;
41719;SDS011;27405;53.316;-6.294;2024-01-11T01:22:13;3.72;;;1.13;;
41719;SDS011;27405;53.316;-6.294;2024-01-11T01:24:38;9.93;;;1.48;;
41719;SDS011;27405;53.316;-6.294;2024-01-11T01:27:04;5.13;;;0.90;;
41719;SDS011;27405;53.316;-6.294;2024-01-11T01:29:30;2.78;;;1.10;;
41719;SDS011;27405;53.316;-6.294;2024-01-11T01:31:55;4.22;;;0.90;;
41719;SDS011;27405;53.316;-6.294;2024-01-11T01:34:22;6.10;;;1.40;;
41719;SDS011;27405;53.316;-6.294;2024-01-11T01:36:48;8.27;;;1.13;;
41719;SDS011;27405;53.316;-6.294;2024-01-11T01:39:13;6.88;;;1.40;;
41719;SDS011;27405;53.316;-6.294;2024-01-11T01:41:39;12.40;;;1.58;;
41719;SDS011;27405;53.316;-6.294;2024-01-11T01:44:05;9.52;;;1.40;;
41719;SDS011;27405;53.316;-6.294;2024-01-11T01:46:30;6.05;;;1.02;;
41719;SDS011;27405;53.316;-6.294;2024-01-11T01:48:57;7.07;;;1.15;;
41719;SDS011;27405;53.316;-6.294;2024-01-11T01:51:23;6.70;;;1.05;;
41719;SDS011;27405;53.316;-6.294;2024-01-11T01:53:52;6.23;;;1.40;;
41719;SDS011;27405;53.316;-6.294;2024-01-11T01:56:19;2.80;;;1.08;;
41719;SDS011;27405;53.316;-6.294;2024-01-11T01:58:46;8.15;;;1.20;;
41719;SDS011;27405;53.316;-6.294;2024-01-11T02:01:12;4.22;;;1.23;;
41719;SDS011;27405;53.316;-6.294;2024-01-11T02:03:39;4.10;;;1.13;;
41719;SDS011;27405;53.316;-6.294;2024-01-11T02:06:06;6.22;;;1.40;;
41719;SDS011;27405;53.316;-6.294;2024-01-11T02:08:32;5.00;;;1.10;;
41719;SDS011;27405;53.316;-6.294;2024-01-11T02:11:00;7.55;;;1.30;;
41719;SDS011;27405;53.316;-6.294;2024-01-11T02:13:26;9.20;;;1.40;;
41719;SDS011;27405;53.316;-6.294;2024-01-11T02:15:52;6.13;;;1.00;;
41719;SDS011;27405;53.316;-6.294;2024-01-11T02:18:17;6.97;;;0.90;;
41719;SDS011;27405;53.316;-6.294;2024-01-11T02:20:43;10.65;;;1.23;;
41719;SDS011;27405;53.316;-6.294;2024-01-11T02:23:11;7.03;;;1.10;;
41719;SDS011;27405;53.316;-6.294;2024-01-11T02:25:40;15.45;;;1.42;;
41719;SDS011;27405;53.316;-6.294;2024-01-11T02:28:06;9.80;;;1.13;;
41719;SDS011;27405;53.316;-6.294;2024-01-11T02:30:33;7.03;;;1.20;;
41719;SDS011;27405;53.316;-6.294;2024-01-11T02:32:59;8.13;;;1.33;;
41719;SDS011;27405;53.316;-6.294;2024-01-11T02:35:26;4.22;;;1.20;;
41719;SDS011;27405;53.316;-6.294;2024-01-11T02:37:53;6.68;;;1.38;;
41719;SDS011;27405;53.316;-6.294;2024-01-11T02:40:19;6.95;;;1.20;;
41719;SDS011;27405;53.316;-6.294;2024-01-11T02:42:45;10.60;;;1.30;;
41719;SDS011;27405;53.316;-6.294;2024-01-11T02:45:11;7.70;;;1.65;;
41719;SDS011;27405;53.316;-6.294;2024-01-11T02:47:37;6.88;;;1.10;;
41719;SDS011;27405;53.316;-6.294;2024-01-11T02:50:04;7.38;;;1.15;;
41719;SDS011;27405;53.316;-6.294;2024-01-11T02:52:30;7.55;;;1.13;;
41719;SDS011;27405;53.316;-6.294;2024-01-11T02:54:56;7.57;;;1.20;;
41719;SDS011;27405;53.316;-6.294;2024-01-11T02:57:22;6.85;;;1.08;;
41719;SDS011;27405;53.316;-6.294;2024-01-11T02:59:47;7.25;;;1.52;;
41719;SDS011;27405;53.316;-6.294;2024-01-11T03:02:14;6.00;;;1.20;;
41719;SDS011;27405;53.316;-6.294;2024-01-11T03:04:40;7.47;;;1.33;;
41719;SDS011;27405;53.316;-6.294;2024-01-11T03:07:05;6.80;;;1.42;;
41719;SDS011;27405;53.316;-6.294;2024-01-11T03:09:31;9.75;;;1.45;;
41719;SDS011;27405;53.316;-6.294;2024-01-11T03:11:56;9.18;;;1.58;;
41719;SDS011;27405;53.316;-6.294;2024-01-11T03:14:22;6.95;;;1.23;;
41719;SDS011;27405;53.316;-6.294;2024-01-11T03:16:48;7.75;;;1.73;;
41719;SDS011;27405;53.316;-6.294;2024-01-11T03:19:13;5.50;;;1.30;;
41719;SDS011;27405;53.316;-6.294;2024-01-11T03:21:43;10.02;;;1.63;;
41719;SDS011;27405;53.316;-6.294;2024-01-11T03:24:09;7.97;;;1.55;;
41719;SDS011;27405;53.316;-6.294;2024-01-11T03:26:35;9.52;;;1.42;;
41719;SDS011;27405;53.316;-6.294;2024-01-11T03:29:00;7.18;;;1.30;;
41719;SDS011;27405;53.316;-6.294;2024-01-11T03:31:26;12.02;;;1.80;;
41719;SDS011;27405;53.316;-6.294;2024-01-11T03:33:52;12.77;;;1.67;;
41719;SDS011;27405;53.316;-6.294;2024-01-11T03:36:17;10.88;;;1.58;;
41719;SDS011;27405;53.316;-6.294;2024-01-11T03:38:43;10.00;;;1.65;;
41719;SDS011;27405;53.316;-6.294;2024-01-11T03:41:09;11.43;;;1.40;;
41719;SDS011;27405;53.316;-6.294;2024-01-11T03:43:35;10.82;;;1.60;;
41719;SDS011;27405;53.316;-6.294;2024-01-11T03:46:01;9.88;;;1.50;;
41719;SDS011;27405;53.316;-6.294;2024-01-11T03:48:28;11.80;;;2.13;;
41719;SDS011;27405;53.316;-6.294;2024-01-11T03:50:53;10.40;;;1.70;;
41719;SDS011;27405;53.316;-6.294;2024-01-11T03:53:19;12.38;;;1.80;;
41719;SDS011;27405;53.316;-6.294;2024-01-11T03:55:45;6.70;;;1.50;;
41719;SDS011;27405;53.316;-6.294;2024-01-11T03:58:11;10.43;;;1.88;;
41719;SDS011;27405;53.316;-6.294;2024-01-11T04:00:36;9.07;;;1.88;;
41719;SDS011;27405;53.316;-6.294;2024-01-11T04:03:02;8.90;;;1.70;;
41719;SDS011;27405;53.316;-6.294;2024-01-11T04:05:28;10.05;;;1.70;;
41719;SDS011;27405;53.316;-6.294;2024-01-11T04:07:53;9.77;;;2.05;;
41719;SDS011;27405;53.316;-6.294;2024-01-11T04:10:19;6.70;;;1.48;;
41719;SDS011;27405;53.316;-6.294;2024-01-11T04:12:44;5.30;;;1.80;;
41719;SDS011;27405;53.316;-6.294;2024-01-11T04:15:13;9.50;;;2.17;;
41719;SDS011;27405;53.316;-6.294;2024-01-11T04:17:39;8.18;;;1.48;;
41719;SDS011;27405;53.316;-6.294;2024-01-11T04:20:06;11.07;;;2.08;;
41719;SDS011;27405;53.316;-6.294;2024-01-11T04:22:33;6.37;;;1.57;;
41719;SDS011;27405;53.316;-6.294;2024-01-11T04:24:59;13.35;;;2.13;;
41719;SDS011;27405;53.316;-6.294;2024-01-11T04:27:25;14.90;;;2.13;;
41719;SDS011;27405;53.316;-6.294;2024-01-11T04:29:51;10.98;;;2.10;;
41719;SDS011;27405;53.316;-6.294;2024-01-11T04:32:16;11.77;;;2.08;;
41719;SDS011;27405;53.316;-6.294;2024-01-11T04:34:42;14.55;;;2.20;;
41719;SDS011;27405;53.316;-6.294;2024-01-11T04:37:08;11.85;;;1.95;;
41719;SDS011;27405;53.316;-6.294;2024-01-11T04:39:34;16.15;;;2.40;;
41719;SDS011;27405;53.316;-6.294;2024-01-11T04:41:59;11.82;;;2.08;;
41719;SDS011;27405;53.316;-6.294;2024-01-11T04:44:28;10.82;;;1.90;;
41719;SDS011;27405;53.316;-6.294;2024-01-11T04:46:54;11.20;;;2.35;;
41719;SDS011;27405;53.316;-6.294;2024-01-11T04:49:19;15.63;;;2.05;;
41719;SDS011;27405;53.316;-6.294;2024-01-11T04:51:45;12.45;;;2.38;;
41719;SDS011;27405;53.316;-6.294;2024-01-11T04:54:10;7.95;;;1.63;;
41719;SDS011;27405;53.316;-6.294;2024-01-11T04:56:36;16.60;;;2.10;;
41719;SDS011;27405;53.316;-6.294;2024-01-11T04:59:02;14.10;;;2.20;;
41719;SDS011;27405;53.316;-6.294;2024-01-11T05:01:27;15.68;;;2.33;;
41719;SDS011;27405;53.316;-6.294;2024-01-11T05:03:53;15.95;;;2.53;;
41719;SDS011;27405;53.316;-6.294;2024-01-11T05:06:19;14.60;;;2.17;;
41719;SDS011;27405;53.316;-6.294;2024-01-11T05:08:47;14.80;;;2.40;;
41719;SDS011;27405;53.316;-6.294;2024-01-11T05:13:43;17.13;;;2.47;;
41719;SDS011;27405;53.316;-6.294;2024-01-11T05:16:29;10.70;;;1.77;;
41719;SDS011;27405;53.316;-6.294;2024-01-11T05:18:55;14.43;;;2.10;;
41719;SDS011;27405;53.316;-6.294;2024-01-11T05:21:22;14.13;;;2.20;;
41719;SDS011;27405;53.316;-6.294;2024-01-11T05:23:48;11.43;;;1.83;;
41719;SDS011;27405;53.316;-6.294;2024-01-11T05:26:16;9.23;;;1.88;;
41719;SDS011;27405;53.316;-6.294;2024-01-11T05:28:43;8.25;;;1.80;;
41719;SDS011;27405;53.316;-6.294;2024-01-11T05:31:09;9.88;;;1.75;;
41719;SDS011;27405;53.316;-6.294;2024-01-11T05:33:35;12.68;;;2.22;;
41719;SDS011;27405;53.316;-6.294;2024-01-11T05:36:01;11.18;;;2.05;;
41719;SDS011;27405;53.316;-6.294;2024-01-11T05:38:27;15.02;;;2.13;;
41719;SDS011;27405;53.316;-6.294;2024-01-11T05:40:53;17.15;;;2.25;;
41719;SDS011;27405;53.316;-6.294;2024-01-11T05:43:18;13.70;;;2.08;;
41719;SDS011;27405;53.316;-6.294;2024-01-11T05:45:44;11.75;;;2.22;;
41719;SDS011;27405;53.316;-6.294;2024-01-11T05:48:10;15.65;;;2.53;;
41719;SDS011;27405;53.316;-6.294;2024-01-11T05:50:36;12.82;;;2.28;;
41719;SDS011;27405;53.316;-6.294;2024-01-11T05:53:02;13.98;;;2.08;;
41719;SDS011;27405;53.316;-6.294;2024-01-11T05:55:27;10.50;;;1.83;;
41719;SDS011;27405;53.316;-6.294;2024-01-11T05:57:53;14.45;;;2.38;;
41719;SDS011;27405;53.316;-6.294;2024-01-11T06:00:19;16.30;;;2.42;;
41719;SDS011;27405;53.316;-6.294;2024-01-11T06:02:45;15.95;;;2.33;;
41719;SDS011;27405;53.316;-6.294;2024-01-11T06:05:11;18.83;;;2.40;;
41719;SDS011;27405;53.316;-6.294;2024-01-11T06:07:40;12.50;;;2.20;;
41719;SDS011;27405;53.316;-6.294;2024-01-11T06:10:06;15.45;;;2.50;;
41719;SDS011;27405;53.316;-6.294;2024-01-11T06:12:33;15.25;;;2.72;;
41719;SDS011;27405;53.316;-6.294;2024-01-11T06:15:00;14.70;;;2.03;;
41719;SDS011;27405;53.316;-6.294;2024-01-11T06:17:26;13.73;;;2.00;;
41719;SDS011;27405;53.316;-6.294;2024-01-11T06:19:52;15.23;;;2.28;;
41719;SDS011;27405;53.316;-6.294;2024-01-11T06:22:17;14.38;;;1.77;;
41719;SDS011;27405;53.316;-6.294;2024-01-11T06:24:43;15.00;;;2.35;;
41719;SDS011;27405;53.316;-6.294;2024-01-11T06:27:09;16.63;;;2.25;;
41719;SDS011;27405;53.316;-6.294;2024-01-11T06:29:35;16.45;;;1.85;;
41719;SDS011;27405;53.316;-6.294;2024-01-11T06:32:01;12.93;;;2.00;;
41719;SDS011;27405;53.316;-6.294;2024-01-11T06:34:27;15.38;;;2.40;;
41719;SDS011;27405;53.316;-6.294;2024-01-11T06:36:53;12.70;;;1.83;;
41719;SDS011;27405;53.316;-6.294;2024-01-11T06:39:20;13.95;;;2.00;;
41719;SDS011;27405;53.316;-6.294;2024-01-11T06:41:46;18.20;;;2.35;;
41719;SDS011;27405;53.316;-6.294;2024-01-11T06:44:11;10.60;;;2.47;;
41719;SDS011;27405;53.316;-6.294;2024-01-11T06:46:37;13.18;;;1.77;;
41719;SDS011;27405;53.316;-6.294;2024-01-11T06:49:07;13.60;;;2.47;;
41719;SDS011;27405;53.316;-6.294;2024-01-11T06:51:33;12.07;;;2.20;;
41719;SDS011;27405;53.316;-6.294;2024-01-11T06:53:59;10.65;;;1.48;;
41719;SDS011;27405;53.316;-6.294;2024-01-11T06:56:26;12.95;;;1.80;;
41719;SDS011;27405;53.316;-6.294;2024-01-11T06:58:52;11.98;;;1.92;;
41719;SDS011;27405;53.316;-6.294;2024-01-11T07:01:19;10.40;;;1.90;;
41719;SDS011;27405;53.316;-6.294;2024-01-11T07:03:45;9.13;;;1.60;;
41719;SDS011;27405;53.316;-6.294;2024-01-11T07:06:11;10.02;;;1.70;;
41719;SDS011;27405;53.316;-6.294;2024-01-11T07:08:37;13.40;;;1.98;;
41719;SDS011;27405;53.316;-6.294;2024-01-11T07:11:03;15.15;;;2.13;;
41719;SDS011;27405;53.316;-6.294;2024-01-11T07:13:29;18.40;;;1.95;;
41719;SDS011;27405;53.316;-6.294;2024-01-11T07:15:56;12.13;;;2.05;;
41719;SDS011;27405;53.316;-6.294;2024-01-11T07:18:23;9.13;;;1.80;;
41719;SDS011;27405;53.316;-6.294;2024-01-11T07:20:49;13.60;;;2.05;;
41719;SDS011;27405;53.316;-6.294;2024-01-11T07:23:15;20.95;;;2.83;;
41719;SDS011;27405;53.316;-6.294;2024-01-11T07:25:41;16.48;;;2.42;;
41719;SDS011;27405;53.316;-6.294;2024-01-11T07:28:07;14.65;;;1.80;;
41719;SDS011;27405;53.316;-6.294;2024-01-11T07:30:33;16.95;;;1.85;;
41719;SDS011;27405;53.316;-6.294;2024-01-11T07:32:59;12.63;;;2.22;;
41719;SDS011;27405;53.316;-6.294;2024-01-11T07:35:25;10.13;;;1.70;;
41719;SDS011;27405;53.316;-6.294;2024-01-11T07:37:51;12.68;;;1.80;;
41719;SDS011;27405;53.316;-6.294;2024-01-11T07:40:17;14.27;;;1.85;;
41719;SDS011;27405;53.316;-6.294;2024-01-11T07:42:43;14.10;;;1.80;;
41719;SDS011;27405;53.316;-6.294;2024-01-11T07:45:09;15.45;;;2.47;;
41719;SDS011;27405;53.316;-6.294;2024-01-11T07:47:35;15.50;;;2.05;;
41719;SDS011;27405;53.316;-6.294;2024-01-11T07:50:02;15.38;;;2.00;;
41719;SDS011;27405;53.316;-6.294;2024-01-11T07:52:31;9.43;;;1.63;;
41719;SDS011;27405;53.316;-6.294;2024-01-11T07:54:57;10.43;;;1.63;;
41719;SDS011;27405;53.316;-6.294;2024-01-11T07:57:25;8.57;;;1.50;;
41719;SDS011;27405;53.316;-6.294;2024-01-11T07:59:50;13.75;;;1.80;;
41719;SDS011;27405;53.316;-6.294;2024-01-11T08:02:16;15.05;;;2.05;;
41719;SDS011;27405;53.316;-6.294;2024-01-11T08:04:42;13.57;;;1.60;;
41719;SDS011;27405;53.316;-6.294;2024-01-11T08:07:08;14.27;;;2.05;;
41719;SDS011;27405;53.316;-6.294;2024-01-11T08:09:33;15.00;;;2.00;;
41719;SDS011;27405;53.316;-6.294;2024-01-11T08:11:59;15.93;;;2.30;;
41719;SDS011;27405;53.316;-6.294;2024-01-11T08:14:24;17.88;;;2.13;;
41719;SDS011;27405;53.316;-6.294;2024-01-11T08:16:50;12.85;;;2.22;;
41719;SDS011;27405;53.316;-6.294;2024-01-11T08:19:16;14.07;;;2.35;;
41719;SDS011;27405;53.316;-6.294;2024-01-11T08:21:42;14.52;;;2.10;;
41719;SDS011;27405;53.316;-6.294;2024-01-11T08:24:07;13.05;;;2.10;;
41719;SDS011;27405;53.316;-6.294;2024-01-11T08:26:33;12.60;;;1.95;;
41719;SDS011;27405;53.316;-6.294;2024-01-11T08:28:59;11.30;;;2.03;;
41719;SDS011;27405;53.316;-6.294;2024-01-11T08:31:25;16.85;;;2.47;;
41719;SDS011;27405;53.316;-6.294;2024-01-11T08:33:50;11.35;;;2.13;;
41719;SDS011;27405;53.316;-6.294;2024-01-11T08:36:16;13.30;;;1.77;;
41719;SDS011;27405;53.316;-6.294;2024-01-11T08:38:42;12.40;;;2.17;;
41719;SDS011;27405;53.316;-6.294;2024-01-11T08:41:07;10.65;;;2.47;;
41719;SDS011;27405;53.316;-6.294;2024-01-11T08:43:33;10.13;;;1.65;;
41719;SDS011;27405;53.316;-6.294;2024-01-11T08:45:59;9.48;;;1.40;;
41719;SDS011;27405;53.316;-6.294;2024-01-11T08:48:26;13.82;;;1.80;;
41719;SDS011;27405;53.316;-6.294;2024-01-11T08:50:53;13.77;;;1.65;;
41719;SDS011;27405;53.316;-6.294;2024-01-11T08:53:19;10.70;;;1.65;;
41719;SDS011;27405;53.316;-6.294;2024-01-11T08:55:45;14.15;;;1.98;;
41719;SDS011;27405;53.316;-6.294;2024-01-11T08:58:10;13.07;;;2.10;;
41719;SDS011;27405;53.316;-6.294;2024-01-11T09:00:37;14.13;;;2.35;;
41719;SDS011;27405;53.316;-6.294;2024-01-11T09:03:03;12.77;;;1.90;;
41719;SDS011;27405;53.316;-6.294;2024-01-11T09:05:29;8.77;;;1.73;;
41719;SDS011;27405;53.316;-6.294;2024-01-11T09:07:54;9.43;;;1.42;;
41719;SDS011;27405;53.316;-6.294;2024-01-11T09:10:20;11.40;;;1.42;;
41719;SDS011;27405;53.316;-6.294;2024-01-11T09:12:46;11.15;;;1.80;;
41719;SDS011;27405;53.316;-6.294;2024-01-11T09:15:12;10.60;;;1.80;;
41719;SDS011;27405;53.316;-6.294;2024-01-11T09:17:37;9.13;;;1.60;;
41719;SDS011;27405;53.316;-6.294;2024-01-11T09:20:04;6.55;;;1.42;;
41719;SDS011;27405;53.316;-6.294;2024-01-11T09:22:30;12.15;;;1.67;;
41719;SDS011;27405;53.316;-6.294;2024-01-11T09:24:56;14.05;;;1.85;;
41719;SDS011;27405;53.316;-6.294;2024-01-11T09:27:21;17.65;;;2.38;;
41719;SDS011;27405;53.316;-6.294;2024-01-11T09:29:47;11.07;;;1.42;;
41719;SDS011;27405;53.316;-6.294;2024-01-11T09:32:13;9.60;;;1.70;;
41719;SDS011;27405;53.316;-6.294;2024-01-11T09:34:39;9.52;;;1.50;;
41719;SDS011;27405;53.316;-6.294;2024-01-11T09:37:05;12.43;;;2.33;;
41719;SDS011;27405;53.316;-6.294;2024-01-11T09:39:30;10.48;;;1.52;;
41719;SDS011;27405;53.316;-6.294;2024-01-11T09:41:59;9.27;;;1.70;;
41719;SDS011;27405;53.316;-6.294;2024-01-11T09:44:31;10.10;;;1.67;;
41719;SDS011;27405;53.316;-6.294;2024-01-11T09:46:58;11.57;;;1.73;;
41719;SDS011;27405;53.316;-6.294;2024-01-11T09:49:26;12.20;;;2.03;;
41719;SDS011;27405;53.316;-6.294;2024-01-11T09:51:55;12.32;;;1.60;;
41719;SDS011;27405;53.316;-6.294;2024-01-11T09:54:24;12.50;;;2.05;;
41719;SDS011;27405;53.316;-6.294;2024-01-11T09:56:51;19.50;;;2.55;;
41719;SDS011;27405;53.316;-6.294;2024-01-11T09:59:18;9.30;;;1.92;;
41719;SDS011;27405;53.316;-6.294;2024-01-11T10:01:47;14.27;;;1.90;;
41719;SDS011;27405;53.316;-6.294;2024-01-11T10:04:14;13.10;;;1.58;;
41719;SDS011;27405;53.316;-6.294;2024-01-11T10:06:41;17.67;;;2.78;;
41719;SDS011;27405;53.316;-6.294;2024-01-11T10:09:08;12.98;;;2.03;;
41719;SDS011;27405;53.316;-6.294;2024-01-11T10:11:34;9.52;;;1.50;;
41719;SDS011;27405;53.316;-6.294;2024-01-11T10:14:00;9.23;;;1.73;;
41719;SDS011;27405;53.316;-6.294;2024-01-11T10:16:29;10.57;;;2.08;;
41719;SDS011;27405;53.316;-6.294;2024-01-11T10:18:55;11.43;;;1.80;;
41719;SDS011;27405;53.316;-6.294;2024-01-11T10:21:22;8.43;;;1.40;;
41719;SDS011;27405;53.316;-6.294;2024-01-11T10:23:49;10.68;;;2.08;;
41719;SDS011;27405;53.316;-6.294;2024-01-11T10:26:15;8.82;;;1.67;;
41719;SDS011;27405;53.316;-6.294;2024-01-11T10:28:45;10.80;;;3.08;;
41719;SDS011;27405;53.316;-6.294;2024-01-11T10:31:11;16.50;;;2.67;;
41719;SDS011;27405;53.316;-6.294;2024-01-11T10:33:40;16.60;;;2.50;;
41719;SDS011;27405;53.316;-6.294;2024-01-11T10:36:06;15.70;;;2.60;;
41719;SDS011;27405;53.316;-6.294;2024-01-11T10:38:38;16.17;;;2.50;;
41719;SDS011;27405;53.316;-6.294;2024-01-11T10:41:05;10.13;;;2.42;;
41719;SDS011;27405;53.316;-6.294;2024-01-11T10:43:32;9.63;;;2.00;;
41719;SDS011;27405;53.316;-6.294;2024-01-11T10:46:02;7.32;;;1.60;;
41719;SDS011;27405;53.316;-6.294;2024-01-11T10:48:31;8.10;;;1.48;;
41719;SDS011;27405;53.316;-6.294;2024-01-11T10:51:09;11.05;;;1.63;;
41719;SDS011;27405;53.316;-6.294;2024-01-11T10:53:46;8.55;;;1.77;;
41719;SDS011;27405;53.316;-6.294;2024-01-11T10:56:15;11.23;;;2.10;;
41719;SDS011;27405;53.316;-6.294;2024-01-11T10:58:42;10.43;;;2.25;;
41719;SDS011;27405;53.316;-6.294;2024-01-11T11:01:11;15.45;;;2.65;;
41719;SDS011;27405;53.316;-6.294;2024-01-11T11:03:38;11.07;;;2.00;;
41719;SDS011;27405;53.316;-6.294;2024-01-11T11:06:04;10.50;;;2.00;;
41719;SDS011;27405;53.316;-6.294;2024-01-11T11:08:31;11.75;;;2.03;;
41719;SDS011;27405;53.316;-6.294;2024-01-11T11:10:59;9.43;;;2.33;;
41719;SDS011;27405;53.316;-6.294;2024-01-11T11:13:29;12.63;;;1.90;;
41719;SDS011;27405;53.316;-6.294;2024-01-11T11:15:56;14.55;;;2.17;;
41719;SDS011;27405;53.316;-6.294;2024-01-11T11:18:24;15.27;;;2.22;;
41719;SDS011;27405;53.316;-6.294;2024-01-11T11:20:51;7.82;;;1.83;;
41719;SDS011;27405;53.316;-6.294;2024-01-11T11:23:17;14.60;;;2.50;;
41719;SDS011;27405;53.316;-6.294;2024-01-11T11:25:47;11.98;;;2.85;;
41719;SDS011;27405;53.316;-6.294;2024-01-11T11:28:14;18.67;;;3.63;;
41719;SDS011;27405;53.316;-6.294;2024-01-11T11:30:42;10.15;;;2.08;;
41719;SDS011;27405;53.316;-6.294;2024-01-11T11:33:22;15.57;;;2.42;;
41719;SDS011;27405;53.316;-6.294;2024-01-11T11:35:52;11.88;;;2.30;;
41719;SDS011;27405;53.316;-6.294;2024-01-11T11:38:26;12.15;;;2.22;;
41719;SDS011;27405;53.316;-6.294;2024-01-11T11:41:00;8.05;;;1.90;;
41719;SDS011;27405;53.316;-6.294;2024-01-11T11:43:27;15.05;;;2.53;;
41719;SDS011;27405;53.316;-6.294;2024-01-11T11:45:55;12.82;;;2.63;;
41719;SDS011;27405;53.316;-6.294;2024-01-11T11:49:07;12.25;;;2.97;;
41719;SDS011;27405;53.316;-6.294;2024-01-11T11:53:40;10.15;;;2.45;;
41719;SDS011;27405;53.316;-6.294;2024-01-11T11:56:07;8.88;;;2.17;;
41719;SDS011;27405;53.316;-6.294;2024-01-11T11:58:37;15.55;;;2.25;;
41719;SDS011;27405;53.316;-6.294;2024-01-11T12:01:08;13.02;;;2.10;;
41719;SDS011;27405;53.316;-6.294;2024-01-11T12:03:37;18.02;;;2.40;;
41719;SDS011;27405;53.316;-6.294;2024-01-11T12:06:06;13.85;;;2.35;;
41719;SDS011;27405;53.316;-6.294;2024-01-11T12:08:33;9.90;;;1.95;;
41719;SDS011;27405;53.316;-6.294;2024-01-11T12:10:59;15.18;;;2.70;;
41719;SDS011;27405;53.316;-6.294;2024-01-11T12:13:25;15.10;;;1.85;;
41719;SDS011;27405;53.316;-6.294;2024-01-11T12:15:51;12.02;;;1.95;;
41719;SDS011;27405;53.316;-6.294;2024-01-11T12:18:18;11.85;;;2.35;;
41719;SDS011;27405;53.316;-6.294;2024-01-11T12:20:44;24.20;;;4.20;;
41719;SDS011;27405;53.316;-6.294;2024-01-11T12:23:10;13.50;;;2.38;;
41719;SDS011;27405;53.316;-6.294;2024-01-11T12:25:38;13.77;;;4.07;;
41719;SDS011;27405;53.316;-6.294;2024-01-11T12:28:10;12.63;;;2.80;;
41719;SDS011;27405;53.316;-6.294;2024-01-11T12:30:36;20.33;;;3.80;;
41719;SDS011;27405;53.316;-6.294;2024-01-11T12:33:02;8.88;;;2.70;;
41719;SDS011;27405;53.316;-6.294;2024-01-11T12:35:30;23.20;;;3.47;;
41719;SDS011;27405;53.316;-6.294;2024-01-11T12:38:03;13.70;;;1.83;;
41719;SDS011;27405;53.316;-6.294;2024-01-11T12:40:36;10.82;;;2.05;;
41719;SDS011;27405;53.316;-6.294;2024-01-11T12:43:08;11.27;;;1.90;;
41719;SDS011;27405;53.316;-6.294;2024-01-11T12:45:36;13.73;;;2.72;;
41719;SDS011;27405;53.316;-6.294;2024-01-11T12:48:02;15.77;;;2.80;;
41719;SDS011;27405;53.316;-6.294;2024-01-11T12:50:31;13.50;;;2.30;;
41719;SDS011;27405;53.316;-6.294;2024-01-11T12:53:31;12.25;;;2.55;;
41719;SDS011;27405;53.316;-6.294;2024-01-11T12:56:08;10.52;;;2.33;;
41719;SDS011;27405;53.316;-6.294;2024-01-11T12:58:36;15.75;;;3.13;;
41719;SDS011;27405;53.316;-6.294;2024-01-11T13:01:03;13.98;;;3.53;;
41719;SDS011;27405;53.316;-6.294;2024-01-11T13:03:29;18.83;;;2.88;;
41719;SDS011;27405;53.316;-6.294;2024-01-11T13:05:56;13.15;;;2.58;;
41719;SDS011;27405;53.316;-6.294;2024-01-11T13:08:22;10.52;;;2.20;;
41719;SDS011;27405;53.316;-6.294;2024-01-11T13:10:48;16.25;;;3.33;;
41719;SDS011;27405;53.316;-6.294;2024-01-11T13:13:14;13.48;;;2.70;;
41719;SDS011;27405;53.316;-6.294;2024-01-11T13:15:40;19.65;;;2.88;;
41719;SDS011;27405;53.316;-6.294;2024-01-11T13:18:06;15.07;;;2.30;;
41719;SDS011;27405;53.316;-6.294;2024-01-11T13:20:32;12.98;;;2.30;;
41719;SDS011;27405;53.316;-6.294;2024-01-11T13:25:45;17.10;;;3.03;;
41719;SDS011;27405;53.316;-6.294;2024-01-11T13:28:12;15.55;;;3.00;;
41719;SDS011;27405;53.316;-6.294;2024-01-11T13:30:42;17.10;;;2.50;;
41719;SDS011;27405;53.316;-6.294;2024-01-11T13:33:08;11.13;;;2.45;;
41719;SDS011;27405;53.316;-6.294;2024-01-11T13:35:36;14.27;;;2.42;;
41719;SDS011;27405;53.316;-6.294;2024-01-11T13:38:02;10.52;;;2.20;;
41719;SDS011;27405;53.316;-6.294;2024-01-11T13:40:28;17.30;;;2.45;;
41719;SDS011;27405;53.316;-6.294;2024-01-11T13:42:55;14.23;;;2.45;;
41719;SDS011;27405;53.316;-6.294;2024-01-11T13:47:52;12.90;;;2.30;;
41719;SDS011;27405;53.316;-6.294;2024-01-11T13:50:24;8.85;;;1.80;;
41719;SDS011;27405;53.316;-6.294;2024-01-11T13:52:50;6.13;;;1.90;;
41719;SDS011;27405;53.316;-6.294;2024-01-11T13:55:16;15.52;;;2.83;;
41719;SDS011;27405;53.316;-6.294;2024-01-11T13:57:46;12.32;;;2.40;;
41719;SDS011;27405;53.316;-6.294;2024-01-11T14:00:12;12.43;;;2.60;;
41719;SDS011;27405;53.316;-6.294;2024-01-11T14:02:38;10.57;;;2.40;;
41719;SDS011;27405;53.316;-6.294;2024-01-11T14:05:06;12.57;;;5.47;;
41719;SDS011;27405;53.316;-6.294;2024-01-11T14:07:36;9.38;;;2.80;;
41719;SDS011;27405;53.316;-6.294;2024-01-11T14:10:03;8.25;;;4.00;;
41719;SDS011;27405;53.316;-6.294;2024-01-11T14:12:30;10.57;;;1.98;;
41719;SDS011;27405;53.316;-6.294;2024-01-11T14:14:57;7.15;;;2.33;;
41719;SDS011;27405;53.316;-6.294;2024-01-11T14:17:22;10.77;;;2.22;;
41719;SDS011;27405;53.316;-6.294;2024-01-11T14:19:48;9.40;;;1.77;;
41719;SDS011;27405;53.316;-6.294;2024-01-11T14:22:14;10.05;;;2.08;;
41719;SDS011;27405;53.316;-6.294;2024-01-11T14:24:40;15.18;;;2.35;;
41719;SDS011;27405;53.316;-6.294;2024-01-11T14:27:05;16.08;;;2.20;;
41719;SDS011;27405;53.316;-6.294;2024-01-11T14:29:32;14.98;;;3.03;;
41719;SDS011;27405;53.316;-6.294;2024-01-11T14:31:58;12.15;;;2.05;;
41719;SDS011;27405;53.316;-6.294;2024-01-11T14:34:23;8.57;;;1.75;;